Time;durP1;ratioP1;P1;durP2;ratioP2;P2;SDS_P1;SDS_P2;PMS_P1;PMS_P2;Temp;Humidity;BMP_temperature;BMP_pressure;BME280_temperature;BME280_humidity;BME280_pressure;Samples;Min_cycle;Max_cycle;Signal;HPM_P1;HPM_P2
2023/08/08 00:01:42;;;;;;;;;3.50;3.50;;;;;20.26;58.42;101008.38;5057740;28;45486;-69
2023/08/08 00:04:09;;;;;;;;;3.50;3.50;;;;;20.19;58.54;101000.00;5057892;28;45320;-70
2023/08/08 00:06:35;;;;;;;;;3.00;3.00;;;;;20.19;58.52;101001.78;5056858;28;45500;-70
2023/08/08 00:09:01;;;;;;;;;3.00;3.00;;;;;20.16;58.46;101004.69;5057338;28;45390;-71
2023/08/08 00:11:27;;;;;;;;;4.00;4.00;;;;;20.12;58.53;101001.38;5055849;28;46303;-69
2023/08/08 00:13:53;;;;;;;;;3.00;3.00;;;;;20.11;58.84;101005.00;5057387;28;45451;-70
2023/08/08 00:16:18;;;;;;;;;2.00;2.00;;;;;20.16;58.94;101005.56;5057281;28;45238;-70
2023/08/08 00:18:43;;;;;;;;;3.00;3.00;;;;;20.14;59.07;101004.78;5057690;28;45323;-69
2023/08/08 00:21:09;;;;;;;;;3.00;3.00;;;;;20.02;59.12;100998.56;5056936;28;45438;-68
2023/08/08 00:23:34;;;;;;;;;3.25;3.25;;;;;19.94;59.10;100996.44;5057387;28;45301;-69
2023/08/08 00:25:59;;;;;;;;;3.75;3.75;;;;;19.91;59.01;100988.66;5056883;28;45311;-67
2023/08/08 00:28:25;;;;;;;;;4.00;4.00;;;;;19.82;59.02;100989.28;5057758;28;45301;-69
2023/08/08 00:30:50;;;;;;;;;3.75;3.75;;;;;19.90;59.87;100999.47;5057243;28;47071;-69
2023/08/08 00:33:16;;;;;;;;;4.00;4.00;;;;;19.85;59.83;100992.59;5056687;28;45335;-71
2023/08/08 00:35:43;;;;;;;;;4.00;4.00;;;;;19.81;59.54;100988.47;5056608;28;45511;-69
2023/08/08 00:38:08;;;;;;;;;3.00;3.00;;;;;19.83;59.94;100996.34;5055949;28;45491;-70
2023/08/08 00:40:33;;;;;;;;;3.50;3.50;;;;;19.84;60.01;100993.56;5057078;28;45454;-70
2023/08/08 00:42:59;;;;;;;;;4.00;4.00;;;;;19.87;60.29;100983.63;5038837;28;45350;-69
2023/08/08 00:45:24;;;;;;;;;4.00;4.00;;;;;19.82;60.02;100979.50;5057337;28;45247;-69
2023/08/08 00:47:50;;;;;;;;;3.25;3.25;;;;;19.84;60.23;100974.03;5038695;28;45216;-70
2023/08/08 00:50:15;;;;;;;;;5.25;4.50;;;;;19.86;60.23;100974.75;5044351;28;47046;-70
2023/08/08 00:52:43;;;;;;;;;3.25;3.25;;;;;19.85;60.39;100965.91;5057222;28;45409;-68
2023/08/08 00:55:08;;;;;;;;;4.25;4.25;;;;;19.82;60.50;100962.59;5056965;28;45415;-68
2023/08/08 00:57:35;;;;;;;;;3.50;3.50;;;;;19.77;60.72;100957.63;5057309;28;45372;-69
2023/08/08 01:00:00;;;;;;;;;4.00;3.25;;;;;19.78;61.06;100958.47;5056896;28;46177;-70
2023/08/08 01:02:26;;;;;;;;;3.00;3.00;;;;;19.79;61.03;100957.50;5056720;28;45323;-68
2023/08/08 01:04:51;;;;;;;;;3.75;3.75;;;;;19.77;61.25;100959.41;5056890;28;45354;-70
2023/08/08 01:07:33;;;;;;;;;3.00;3.00;;;;;19.76;61.46;100958.59;5057130;28;45607;-70
2023/08/08 01:10:14;;;;;;;;;3.25;3.25;;;;;19.77;61.05;100956.75;5057071;28;45338;-70
2023/08/08 01:12:52;;;;;;;;;4.25;4.25;;;;;19.76;61.45;100949.72;5056591;28;45382;-69
2023/08/08 01:15:18;;;;;;;;;4.00;4.00;;;;;19.77;61.58;100956.75;5055177;28;45269;-70
2023/08/08 01:17:46;;;;;;;;;4.25;4.25;;;;;19.76;61.65;100957.72;5057027;28;45472;-68
2023/08/08 01:20:16;;;;;;;;;4.00;4.00;;;;;19.74;61.47;100955.19;5058228;28;45382;-69
2023/08/08 01:23:00;;;;;;;;;5.75;5.75;;;;;19.73;61.71;100952.59;5056401;28;45427;-69
2023/08/08 01:25:26;;;;;;;;;11.75;11.75;;;;;19.70;62.31;100959.03;5056601;28;45647;-69
2023/08/08 01:27:51;;;;;;;;;2.00;2.00;;;;;19.71;62.01;100968.75;5071868;28;45704;-68
2023/08/08 01:30:16;;;;;;;;;7.25;5.75;;;;;19.75;61.97;100964.88;5056276;28;46012;-70
2023/08/08 01:32:42;;;;;;;;;2.50;2.50;;;;;19.74;61.72;100956.97;5070917;28;49235;-69
2023/08/08 01:35:07;;;;;;;;;4.25;4.25;;;;;19.75;62.02;100950.69;5056317;28;50092;-68
2023/08/08 01:37:39;;;;;;;;;4.75;4.75;;;;;19.80;62.01;100959.19;5057653;28;45363;-70
2023/08/08 01:40:06;;;;;;;;;7.75;7.75;;;;;19.87;61.95;100962.28;5056764;28;46268;-71
2023/08/08 01:42:32;;;;;;;;;3.75;3.75;;;;;19.87;61.83;100955.09;5056039;28;45326;-71
2023/08/08 01:44:58;;;;;;;;;3.25;3.25;;;;;19.91;61.72;100963.78;5055106;28;45476;-70
2023/08/08 01:47:24;;;;;;;;;3.00;3.00;;;;;19.92;61.53;100960.16;5055974;28;45439;-70
2023/08/08 01:49:49;;;;;;;;;3.25;3.25;;;;;19.95;61.46;100965.25;5058482;28;45419;-70
2023/08/08 01:52:14;;;;;;;;;4.00;4.00;;;;;19.97;61.69;100958.84;5060376;28;45505;-71
2023/08/08 01:54:42;;;;;;;;;3.75;3.75;;;;;20.00;61.78;100969.28;5056973;28;64262;-69
2023/08/08 01:57:07;;;;;;;;;4.25;4.25;;;;;20.02;61.20;100969.19;5055678;28;45669;-70
2023/08/08 01:59:33;;;;;;;;;6.00;5.25;;;;;20.04;61.64;100956.56;5055856;28;45288;-70
2023/08/08 02:01:58;;;;;;;;;5.75;5.75;;;;;20.07;61.09;100958.16;5055931;28;45355;-70
2023/08/08 02:04:23;;;;;;;;;3.25;3.25;;;;;20.10;61.01;100960.59;5034630;28;45596;-70
2023/08/08 02:06:49;;;;;;;;;3.00;3.00;;;;;20.09;61.02;100951.75;5054796;28;45481;-70
2023/08/08 02:09:15;;;;;;;;;4.00;4.00;;;;;20.05;61.17;100955.59;5055373;28;45351;-69
2023/08/08 02:11:41;;;;;;;;;2.00;2.00;;;;;19.99;61.13;100946.22;5055701;28;45320;-69
2023/08/08 02:14:06;;;;;;;;;4.00;4.00;;;;;19.95;61.25;100939.41;5056025;28;45257;-70
2023/08/08 02:16:31;;;;;;;;;3.00;3.00;;;;;20.00;60.81;100936.41;5058602;28;45615;-72
2023/08/08 02:18:57;;;;;;;;;3.00;3.00;;;;;20.00;60.75;100939.91;5057064;28;57370;-71
2023/08/08 02:21:22;;;;;;;;;3.00;3.00;;;;;19.94;61.12;100935.03;5056145;28;45427;-69
2023/08/08 02:23:47;;;;;;;;;2.75;2.75;;;;;19.97;60.63;100932.13;5055842;28;45230;-69
2023/08/08 02:26:13;;;;;;;;;1.50;1.50;;;;;19.99;61.32;100929.38;5055765;28;45478;-69
2023/08/08 02:28:38;;;;;;;;;3.50;3.00;;;;;20.02;61.18;100929.13;5054368;28;66090;-70
2023/08/08 02:31:03;;;;;;;;;4.00;4.00;;;;;20.03;60.96;100935.31;5070993;28;49886;-69
2023/08/08 02:33:28;;;;;;;;;3.75;3.75;;;;;20.05;61.24;100926.22;5054899;28;45662;-69
2023/08/08 02:35:54;;;;;;;;;5.25;3.50;;;;;20.05;61.21;100925.38;5054689;28;59094;-68
2023/08/08 02:38:19;;;;;;;;;2.00;2.00;;;;;20.06;61.21;100922.59;5061935;28;46910;-70
2023/08/08 02:40:44;;;;;;;;;3.00;3.00;;;;;20.04;61.35;100915.66;5055170;28;60133;-70
2023/08/08 02:43:10;;;;;;;;;3.67;3.67;;;;;20.04;61.14;100912.97;5055291;28;46470;-70
2023/08/08 02:45:36;;;;;;;;;2.50;2.50;;;;;20.00;61.36;100915.88;5055932;28;45449;-69
2023/08/08 02:48:01;;;;;;;;;3.00;3.00;;;;;19.96;61.48;100914.41;5063830;28;45487;-70
2023/08/08 02:50:27;;;;;;;;;3.00;3.00;;;;;19.96;61.00;100925.09;5061020;28;45272;-70
2023/08/08 02:52:52;;;;;;;;;4.00;4.00;;;;;19.93;61.51;100917.31;5056261;28;45491;-70
2023/08/08 02:55:17;;;;;;;;;3.25;3.25;;;;;19.93;61.24;100927.16;5054903;28;52694;-69
2023/08/08 02:57:43;;;;;;;;;3.00;3.00;;;;;19.88;62.08;100929.28;5055361;28;45872;-69
2023/08/08 03:00:10;;;;;;;;;3.50;3.50;;;;;19.91;61.24;100929.91;5056294;28;45400;-68
2023/08/08 03:02:35;;;;;;;;;3.25;3.25;;;;;19.93;61.87;100929.81;5055609;28;45516;-70
2023/08/08 03:05:00;;;;;;;;;3.00;3.00;;;;;19.89;61.50;100942.50;5055467;28;45503;-70
2023/08/08 03:07:26;;;;;;;;;4.00;4.00;;;;;19.92;61.61;100939.63;5054121;28;52150;-70
2023/08/08 03:09:51;;;;;;;;;3.50;3.50;;;;;19.92;61.74;100934.28;5056503;28;58902;-68
2023/08/08 03:12:16;;;;;;;;;3.50;3.50;;;;;19.90;61.96;100936.22;5058814;28;45236;-70
2023/08/08 03:14:42;;;;;;;;;2.75;2.75;;;;;19.90;61.35;100936.22;5058854;28;45233;-70
2023/08/08 03:17:07;;;;;;;;;3.25;3.25;;;;;19.91;61.74;100940.59;5057528;28;57023;-69
2023/08/08 03:19:32;;;;;;;;;3.50;3.50;;;;;19.93;61.77;100936.00;5074245;27;45331;-69
2023/08/08 03:21:57;;;;;;;;;2.25;2.25;;;;;19.97;61.69;100924.13;5057479;28;60255;-68
2023/08/08 03:24:23;;;;;;;;;5.00;3.75;;;;;19.98;61.86;100922.31;5040000;28;47742;-69
2023/08/08 03:26:48;;;;;;;;;3.00;3.00;;;;;19.98;61.55;100938.34;5057126;28;59641;-69
2023/08/08 03:29:13;;;;;;;;;3.25;3.00;;;;;19.93;61.50;100932.50;5057805;28;54109;-70
2023/08/08 03:31:38;;;;;;;;;3.75;3.75;;;;;19.93;61.48;100929.81;5058161;28;45173;-66
2023/08/08 03:34:04;;;;;;;;;2.50;2.50;;;;;19.95;61.66;100928.72;5058944;28;45501;-68
2023/08/08 03:36:30;;;;;;;;;3.00;3.00;;;;;19.93;61.73;100928.00;5057888;28;45556;-71
2023/08/08 03:38:55;;;;;;;;;2.67;2.67;;;;;19.88;62.03;100915.94;5058057;28;45355;-68
2023/08/08 03:41:20;;;;;;;;;3.00;3.00;;;;;19.91;61.80;100921.91;5057340;28;45346;-70
2023/08/08 03:43:46;;;;;;;;;2.00;2.00;;;;;19.94;61.92;100935.03;5056138;28;45513;-69
2023/08/08 03:46:11;;;;;;;;;3.00;3.00;;;;;19.90;61.94;100938.91;5056500;28;47555;-69
2023/08/08 03:48:37;;;;;;;;;0.00;0.00;;;;;19.86;62.43;100942.72;5058903;28;45301;-69
2023/08/08 03:51:02;;;;;;;;;2.00;2.00;;;;;19.86;62.29;100942.72;5058779;28;45334;-70
2023/08/08 03:53:28;;;;;;;;;3.00;3.00;;;;;19.80;62.55;100941.38;5058642;28;44776;-69
2023/08/08 03:55:53;;;;;;;;;4.00;4.00;;;;;19.70;62.84;100940.34;5057738;28;46840;-70
2023/08/08 03:58:19;;;;;;;;;3.00;3.00;;;;;19.67;62.96;100944.09;5057517;28;45209;-70
2023/08/08 04:00:46;;;;;;;;;2.75;2.75;;;;;19.65;62.83;100938.00;5057884;28;45402;-70
2023/08/08 04:03:15;;;;;;;;;3.00;3.00;;;;;19.62;63.42;100956.06;5057982;28;45449;-69
2023/08/08 04:05:41;;;;;;;;;3.00;3.00;;;;;19.60;63.48;100960.63;5057282;28;45503;-71
2023/08/08 04:08:07;;;;;;;;;3.00;3.00;;;;;19.56;63.86;100957.34;5039899;28;45286;-70
2023/08/08 04:10:32;;;;;;;;;3.00;3.00;;;;;19.58;63.81;100947.44;5037441;28;45379;-67
2023/08/08 04:12:57;;;;;;;;;2.50;2.50;;;;;19.57;64.02;100956.41;5040799;28;45524;-69
2023/08/08 04:15:23;;;;;;;;;3.75;3.75;;;;;19.62;64.54;100954.25;5056399;28;46413;-68
2023/08/08 04:17:48;;;;;;;;;3.00;3.00;;;;;19.67;64.07;100945.91;5057379;28;45393;-69
2023/08/08 04:20:14;;;;;;;;;3.00;3.00;;;;;19.66;64.06;100946.88;5055609;28;45331;-68
2023/08/08 04:22:39;;;;;;;;;3.25;3.25;;;;;19.66;63.65;100945.03;5058286;28;45253;-68
2023/08/08 04:25:06;;;;;;;;;3.00;3.00;;;;;19.62;63.95;100948.06;5058956;28;45900;-71
2023/08/08 04:27:31;;;;;;;;;3.00;3.00;;;;;19.61;64.64;100947.19;5057282;28;45269;-70
2023/08/08 04:29:56;;;;;;;;;4.00;4.00;;;;;19.58;64.06;100944.75;5057429;28;45810;-69
2023/08/08 04:32:21;;;;;;;;;3.75;3.25;;;;;19.58;64.34;100941.22;5058001;28;45531;-69
2023/08/08 04:34:47;;;;;;;;;3.00;3.00;;;;;19.54;64.79;100944.13;5039345;28;46994;-69
2023/08/08 04:37:12;;;;;;;;;3.00;3.00;;;;;19.54;64.72;100937.94;5057113;28;45251;-71
2023/08/08 04:39:37;;;;;;;;;3.50;3.50;;;;;19.57;64.72;100951.06;5057140;28;52118;-70
2023/08/08 04:42:03;;;;;;;;;3.00;3.00;;;;;19.54;65.54;100943.28;5057355;28;45411;-69
2023/08/08 04:44:29;;;;;;;;;3.00;3.00;;;;;19.60;64.96;100945.50;5056793;28;45459;-70
2023/08/08 04:46:54;;;;;;;;;2.75;2.75;;;;;19.48;64.60;100935.72;5056901;28;45514;-70
2023/08/08 04:49:19;;;;;;;;;3.00;3.00;;;;;19.62;65.09;100950.75;5056434;28;62754;-69
2023/08/08 04:51:45;;;;;;;;;4.00;4.00;;;;;19.62;65.13;100951.56;5056096;28;56762;-71
2023/08/08 04:54:10;;;;;;;;;2.25;2.25;;;;;19.64;64.77;100951.47;5057177;28;51406;-69
2023/08/08 04:56:35;;;;;;;;;4.00;4.00;;;;;19.62;65.31;100940.06;5056665;28;45356;-69
2023/08/08 04:59:00;;;;;;;;;3.25;3.25;;;;;19.67;65.42;100941.41;5056520;28;45247;-70
2023/08/08 05:01:26;;;;;;;;;5.00;4.25;;;;;19.77;65.52;100938.06;5056226;28;60509;-70
2023/08/08 05:03:51;;;;;;;;;4.00;4.00;;;;;19.88;65.15;100937.28;5056488;28;46139;-71
2023/08/08 05:06:16;;;;;;;;;4.25;4.00;;;;;19.95;64.44;100935.91;5056584;28;45453;-70
2023/08/08 05:08:42;;;;;;;;;4.00;4.00;;;;;20.02;64.61;100925.59;5056704;28;45529;-70
2023/08/08 05:11:07;;;;;;;;;3.50;3.50;;;;;20.08;64.28;100935.81;5057277;28;45415;-69
2023/08/08 05:13:32;;;;;;;;;3.50;3.50;;;;;20.14;64.06;100938.03;5056011;28;46797;-69
2023/08/08 05:15:58;;;;;;;;;6.50;6.50;;;;;20.13;64.18;100928.31;5055530;28;60099;-69
2023/08/08 05:18:23;;;;;;;;;5.75;5.75;;;;;19.90;64.73;100930.88;5038773;28;45387;-70
2023/08/08 05:20:48;;;;;;;;;4.75;4.50;;;;;19.91;65.73;100937.09;5056823;28;45374;-71
2023/08/08 05:23:14;;;;;;;;;10.00;10.00;;;;;20.02;65.34;100936.28;5056532;28;46154;-71
2023/08/08 05:25:40;;;;;;;;;3.00;3.00;;;;;20.07;65.35;100932.31;5055428;28;63259;-70
2023/08/08 05:28:05;;;;;;;;;3.00;3.00;;;;;20.11;64.99;100930.25;5056185;28;45455;-70
2023/08/08 05:30:31;;;;;;;;;5.50;5.50;;;;;20.26;64.80;100929.13;5056487;28;45243;-71
2023/08/08 05:32:56;;;;;;;;;4.00;4.00;;;;;20.36;64.49;100944.44;5053605;28;47972;-69
2023/08/08 05:35:21;;;;;;;;;3.00;3.00;;;;;20.34;64.45;100927.69;5055732;28;45379;-71
2023/08/08 05:37:47;;;;;;;;;4.25;4.25;;;;;20.32;64.68;100933.13;5055995;28;45196;-69
2023/08/08 05:40:12;;;;;;;;;3.00;3.00;;;;;20.33;64.46;100928.66;5056783;28;45178;-70
2023/08/08 05:42:38;;;;;;;;;3.25;3.25;;;;;20.33;64.12;100928.66;5055700;28;45417;-70
2023/08/08 05:45:04;;;;;;;;;3.25;3.25;;;;;20.37;64.42;100935.47;5055464;28;45159;-70
2023/08/08 05:47:29;;;;;;;;;6.00;6.00;;;;;20.44;64.57;100945.53;5056021;28;45320;-70
2023/08/08 05:49:55;;;;;;;;;3.75;3.75;;;;;20.53;64.25;100941.31;5055616;28;48634;-70
2023/08/08 05:52:21;;;;;;;;;4.00;4.00;;;;;20.66;64.14;100941.22;5037556;28;48055;-71
2023/08/08 05:54:46;;;;;;;;;3.75;3.75;;;;;20.77;63.43;100942.22;5055790;28;45380;-70
2023/08/08 05:57:11;;;;;;;;;3.00;3.00;;;;;20.82;63.17;100948.09;5055836;28;45675;-70
2023/08/08 05:59:37;;;;;;;;;3.75;3.75;;;;;20.87;63.24;100953.94;5055866;28;48655;-70
2023/08/08 06:02:02;;;;;;;;;3.25;3.25;;;;;20.90;62.92;100948.34;5055533;28;45561;-70
2023/08/08 06:04:27;;;;;;;;;3.75;3.75;;;;;21.06;62.79;100961.34;5055467;28;45394;-70
2023/08/08 06:06:53;;;;;;;;;3.50;3.50;;;;;21.16;62.59;100958.81;5054591;28;45436;-70
2023/08/08 06:09:19;;;;;;;;;4.00;4.00;;;;;21.24;62.45;100958.22;5055396;28;45322;-71
2023/08/08 06:11:44;;;;;;;;;5.00;5.00;;;;;21.26;62.09;100951.75;5055839;28;49096;-70
2023/08/08 06:14:09;;;;;;;;;4.75;4.75;;;;;21.34;61.72;100953.81;5044953;28;45371;-70
2023/08/08 06:16:35;;;;;;;;;3.50;2.50;;;;;21.36;61.48;100951.88;5055115;28;45576;-77
2023/08/08 06:19:00;;;;;;;;;4.00;4.00;;;;;21.34;61.45;100951.16;5055066;28;45693;-75
2023/08/08 06:21:25;;;;;;;;;4.75;4.75;;;;;21.31;60.99;100965.63;5055255;28;45987;-74
2023/08/08 06:23:54;;;;;;;;;3.00;3.00;;;;;21.26;60.97;100958.94;5053857;28;45387;-73
2023/08/08 06:26:20;;;;;;;;;4.00;4.00;;;;;21.20;60.77;100962.94;5056410;28;45351;-76
2023/08/08 06:28:46;;;;;;;;;5.00;5.00;;;;;21.24;60.92;100975.09;5056651;28;45521;-74
2023/08/08 06:31:11;;;;;;;;;4.00;4.00;;;;;21.30;60.69;100977.28;5055522;28;46221;-74
2023/08/08 06:33:36;;;;;;;;;2.00;2.00;;;;;21.43;60.40;100971.81;5054933;28;45335;-75
2023/08/08 06:36:03;;;;;;;;;4.00;4.00;;;;;21.49;59.80;100961.59;5055244;28;45320;-77
2023/08/08 06:38:28;;;;;;;;;4.50;4.50;;;;;21.50;59.47;100963.31;5053951;28;45521;-75
2023/08/08 06:40:55;;;;;;;;;4.25;4.25;;;;;21.58;59.00;100961.69;5054362;28;45471;-72
2023/08/08 06:43:21;;;;;;;;;3.00;3.00;;;;;21.66;59.30;100974.50;5054046;28;45324;-75
2023/08/08 06:45:46;;;;;;;;;3.00;3.00;;;;;21.66;57.96;100971.81;5054479;28;45522;-70
2023/08/08 06:48:11;;;;;;;;;2.00;2.00;;;;;21.60;57.89;100974.97;5054510;28;45227;-74
2023/08/08 06:50:37;;;;;;;;;3.00;3.00;;;;;21.66;57.80;100963.78;5053565;28;67894;-71
2023/08/08 06:53:03;;;;;;;;;3.00;3.00;;;;;21.81;57.77;100958.16;5054363;28;45225;-74
2023/08/08 06:55:28;;;;;;;;;2.00;2.00;;;;;21.88;56.63;100962.03;5055581;28;45357;-73
2023/08/08 06:57:54;;;;;;;;;2.00;2.00;;;;;21.97;55.60;100955.91;5055099;28;45450;-72
2023/08/08 07:00:19;;;;;;;;;1.67;1.67;;;;;21.91;54.51;100961.75;5036777;28;46032;-70
2023/08/08 07:02:44;;;;;;;;;2.00;2.00;;;;;21.83;54.33;100951.72;5053821;28;45415;-73
2023/08/08 07:05:10;;;;;;;;;1.00;1.00;;;;;21.83;53.42;100962.41;5054644;28;45362;-71
2023/08/08 07:07:35;;;;;;;;;1.67;1.67;;;;;21.88;53.54;100962.03;5054594;28;45607;-73
2023/08/08 07:10:01;;;;;;;;;2.00;2.00;;;;;21.97;53.17;100955.06;5060396;28;47175;-73
2023/08/08 07:12:27;;;;;;;;;2.00;2.00;;;;;21.91;52.49;100958.25;5059387;28;45308;-73
2023/08/08 07:14:52;;;;;;;;;2.00;2.00;;;;;21.83;52.50;100965.09;5056987;28;48769;-71
2023/08/08 07:17:17;;;;;;;;;2.75;2.75;;;;;21.80;52.24;100961.81;5055056;28;45515;-70
2023/08/08 07:19:43;;;;;;;;;1.25;1.25;;;;;21.98;51.70;100960.28;5054154;28;46049;-71
2023/08/08 07:22:08;;;;;;;;;2.00;2.00;;;;;21.97;52.05;100950.53;5056891;28;45469;-74
2023/08/08 07:24:34;;;;;;;;;2.00;2.00;;;;;21.87;52.21;100953.16;5054402;28;45435;-72
2023/08/08 07:27:00;;;;;;;;;2.00;2.00;;;;;21.66;52.39;100952.22;5055930;28;45544;-72
2023/08/08 07:29:25;;;;;;;;;3.00;3.00;;;;;21.62;52.84;100946.25;5053562;28;46307;-75
2023/08/08 07:31:54;;;;;;;;;3.00;2.75;;;;;21.65;53.08;100947.84;5053507;28;45549;-67
2023/08/08 07:34:20;;;;;;;;;3.00;3.00;;;;;21.66;53.04;100942.38;5053546;28;45783;-71
2023/08/08 07:36:46;;;;;;;;;3.75;3.75;;;;;21.80;53.27;100938.56;5034446;28;45324;-72
2023/08/08 07:39:11;;;;;;;;;3.00;3.00;;;;;21.94;52.97;100940.09;5033877;28;45502;-73
2023/08/08 07:41:36;;;;;;;;;1.75;1.75;;;;;21.83;52.93;100916.03;5033969;28;45282;-71
2023/08/08 07:44:02;;;;;;;;;3.50;3.50;;;;;21.97;52.57;100949.72;5034971;28;45303;-71
2023/08/08 07:46:27;;;;;;;;;3.25;3.25;;;;;22.03;52.89;100939.31;5032117;28;45622;-71
2023/08/08 07:48:53;;;;;;;;;2.00;2.00;;;;;22.08;52.59;100944.31;5033446;28;46263;-70
2023/08/08 07:51:18;;;;;;;;;3.00;3.00;;;;;22.20;52.71;100938.91;5035361;28;45330;-71
2023/08/08 07:53:43;;;;;;;;;2.00;2.00;;;;;22.18;52.48;100933.66;5034500;28;58659;-73
2023/08/08 07:56:09;;;;;;;;;6.00;4.25;;;;;22.26;52.36;100955.28;5036373;28;45364;-69
2023/08/08 07:58:34;;;;;;;;;3.67;3.67;;;;;22.28;52.10;100947.13;5038094;28;45265;-73
2023/08/08 08:00:59;;;;;;;;;1.75;1.75;;;;;22.44;51.97;100949.38;5037556;28;54153;-72
2023/08/08 08:03:26;;;;;;;;;3.25;3.25;;;;;22.47;51.88;100947.31;5037111;28;54718;-71
2023/08/08 08:05:52;;;;;;;;;2.67;2.67;;;;;22.52;51.98;100938.03;5020090;28;45465;-75
2023/08/08 08:08:17;;;;;;;;;3.00;3.00;;;;;22.59;52.02;100940.06;5037381;28;45354;-72
2023/08/08 08:10:43;;;;;;;;;4.00;4.00;;;;;22.76;51.52;100938.59;5036889;28;48924;-74
2023/08/08 08:13:10;;;;;;;;;1.00;1.00;;;;;22.76;51.30;100932.38;5037223;28;45294;-76
2023/08/08 08:15:35;;;;;;;;;1.00;1.00;;;;;22.74;51.07;100937.88;5036265;28;45505;-72
2023/08/08 08:18:01;;;;;;;;;2.25;2.25;;;;;22.69;51.10;100931.22;5037100;28;46092;-75
2023/08/08 08:20:26;;;;;;;;;3.00;3.00;;;;;22.68;51.15;100933.03;5037493;28;45418;-75
2023/08/08 08:22:52;;;;;;;;;3.00;3.00;;;;;22.70;51.22;100928.41;5037604;28;45367;-74
2023/08/08 08:25:17;;;;;;;;;4.25;4.25;;;;;22.68;51.27;100929.53;5037134;28;45401;-76
2023/08/08 08:27:42;;;;;;;;;4.00;4.00;;;;;22.65;51.61;100933.31;5037320;28;45260;-70
2023/08/08 08:30:11;;;;;;;;;6.00;5.50;;;;;22.70;51.31;100930.25;5019961;28;45474;-72
2023/08/08 08:32:39;;;;;;;;;2.50;2.50;;;;;22.72;51.37;100917.56;5035851;28;45366;-74
2023/08/08 08:35:06;;;;;;;;;3.67;3.67;;;;;22.89;51.46;100932.19;5036917;28;45316;-75
2023/08/08 08:37:31;;;;;;;;;3.00;3.00;;;;;23.07;51.12;100934.22;5037117;28;45865;-75
2023/08/08 08:39:56;;;;;;;;;4.00;4.00;;;;;23.28;50.51;100926.13;5036420;28;45388;-69
2023/08/08 08:42:22;;;;;;;;;3.00;3.00;;;;;23.43;50.15;100927.47;5036952;28;45412;-75
2023/08/08 08:44:49;;;;;;;;;3.00;3.00;;;;;23.56;49.44;100934.41;5036785;28;45425;-74
2023/08/08 08:47:19;;;;;;;;;3.00;3.00;;;;;23.59;48.75;100939.50;5036563;28;46355;-73
2023/08/08 08:49:45;;;;;;;;;6.75;6.75;;;;;23.59;49.36;100942.19;5036458;28;45547;-74
2023/08/08 08:52:11;;;;;;;;;4.00;4.00;;;;;23.61;49.39;100942.91;5034997;28;45268;-76
2023/08/08 08:54:37;;;;;;;;;1.33;1.33;;;;;23.52;48.50;100949.13;5036703;28;45328;-73
2023/08/08 08:57:03;;;;;;;;;5.00;5.00;;;;;23.46;48.87;100953.19;5036705;28;45375;-75
2023/08/08 08:59:28;;;;;;;;;13.50;12.25;;;;;23.49;48.46;100947.53;5036450;28;45433;-71
2023/08/08 09:01:53;;;;;;;;;3.00;3.00;;;;;23.62;48.17;100948.13;5036718;28;46608;-72
2023/08/08 09:04:20;;;;;;;;;2.25;2.25;;;;;23.71;48.58;100941.09;5036813;28;45360;-75
2023/08/08 09:06:47;;;;;;;;;1.75;1.75;;;;;23.64;47.81;100934.56;5035874;28;48395;-73
2023/08/08 09:09:15;;;;;;;;;2.00;2.00;;;;;23.65;48.14;100938.97;5036092;28;45292;-75
2023/08/08 09:11:45;;;;;;;;;4.00;4.00;;;;;23.77;47.58;100932.47;5035164;28;45326;-74
2023/08/08 09:14:21;;;;;;;;;3.00;3.00;;;;;23.92;47.58;100937.44;5036491;28;45273;-74
2023/08/08 09:16:47;;;;;;;;;1.25;1.25;;;;;23.99;47.40;100935.88;5035519;28;45509;-75
2023/08/08 09:19:19;;;;;;;;;1.33;1.33;;;;;24.15;46.82;100931.81;5035886;28;45206;-74
2023/08/08 09:21:45;;;;;;;;;3.00;3.00;;;;;24.27;46.67;100925.28;5036598;28;45288;-72
2023/08/08 09:24:10;;;;;;;;;2.00;2.00;;;;;24.38;46.20;100926.97;5036338;28;45392;-72
2023/08/08 09:26:36;;;;;;;;;2.00;2.00;;;;;24.53;46.18;100932.75;5036129;28;45230;-73
2023/08/08 09:29:02;;;;;;;;;1.67;1.67;;;;;24.79;46.24;100929.47;5035913;28;45324;-71
2023/08/08 09:31:28;;;;;;;;;2.50;1.75;;;;;25.01;45.72;100924.72;5036165;28;45353;-73
2023/08/08 09:33:57;;;;;;;;;1.67;1.67;;;;;25.08;44.94;100929.38;5018297;28;45265;-74
2023/08/08 09:36:23;;;;;;;;;3.00;3.00;;;;;25.23;44.47;100916.22;5035678;28;45408;-69
2023/08/08 09:38:49;;;;;;;;;3.25;3.25;;;;;25.46;44.69;100921.25;5035824;28;45428;-74
2023/08/08 09:41:15;;;;;;;;;2.75;2.75;;;;;25.62;44.45;100925.13;5017918;28;45395;-74
2023/08/08 09:43:43;;;;;;;;;1.00;1.00;;;;;25.62;44.12;100906.28;5036847;28;45973;-72
2023/08/08 09:46:09;;;;;;;;;2.33;2.33;;;;;25.63;44.03;100910.66;5038088;28;46095;-71
2023/08/08 09:48:37;;;;;;;;;1.00;1.00;;;;;25.67;43.73;100895.88;5038336;28;45372;-71
2023/08/08 09:51:04;;;;;;;;;2.67;2.67;;;;;25.65;43.75;100900.59;5037115;28;45395;-73
2023/08/08 09:53:29;;;;;;;;;8.25;8.25;;;;;25.81;43.69;100900.75;5036411;28;45324;-69
2023/08/08 09:55:56;;;;;;;;;2.00;2.00;;;;;25.87;43.61;100901.13;5036164;28;45329;-72
2023/08/08 09:58:22;;;;;;;;;1.00;1.00;;;;;25.88;43.44;100890.16;5037112;28;45718;-69
2023/08/08 10:00:50;;;;;;;;;3.50;3.50;;;;;25.98;43.38;100897.31;5035559;28;45361;-71
2023/08/08 10:03:16;;;;;;;;;3.75;3.75;;;;;26.02;43.56;100896.88;5035728;28;45523;-72
2023/08/08 10:05:42;;;;;;;;;3.00;3.00;;;;;26.16;43.38;100892.81;5035281;28;46953;-70
2023/08/08 10:08:08;;;;;;;;;3.25;3.25;;;;;26.06;43.52;100900.13;5035062;28;45474;-71
2023/08/08 10:10:34;;;;;;;;;5.25;5.25;;;;;26.08;43.62;100888.16;5035301;28;45364;-70
2023/08/08 10:12:59;;;;;;;;;2.00;2.00;;;;;26.21;43.42;100887.78;5035878;28;45486;-72
2023/08/08 10:15:27;;;;;;;;;4.00;4.00;;;;;26.29;43.56;100888.84;5035061;28;46035;-72
2023/08/08 10:17:55;;;;;;;;;4.00;4.00;;;;;26.50;43.01;100885.78;5035070;28;45327;-69
2023/08/08 10:20:21;;;;;;;;;1.67;1.67;;;;;26.37;43.14;100889.75;5034523;28;45373;-69
2023/08/08 10:22:47;;;;;;;;;2.33;2.33;;;;;26.18;42.89;100888.09;5035120;28;45533;-70
2023/08/08 10:25:27;;;;;;;;;2.00;2.00;;;;;25.86;42.99;100850.94;5033373;28;47491;-74
2023/08/08 10:28:14;;;;;;;;;3.00;3.00;;;;;25.91;43.22;100872.84;5034828;28;45364;-73
2023/08/08 10:30:46;;;;;;;;;5.50;5.50;;;;;25.98;43.08;100882.00;5033089;28;45343;-75
2023/08/08 10:33:42;;;;;;;;;4.25;4.25;;;;;26.02;42.92;100877.16;5034749;28;45206;-75
2023/08/08 10:36:08;;;;;;;;;2.25;2.25;;;;;26.02;43.03;100883.41;5001154;28;46358;-74
2023/08/08 10:38:42;;;;;;;;;2.67;2.67;;;;;26.29;42.51;100888.84;5034648;28;45356;-70
2023/08/08 10:41:11;;;;;;;;;4.50;4.50;;;;;26.33;42.73;100880.28;5034694;28;45290;-74
2023/08/08 10:43:37;;;;;;;;;4.00;4.00;;;;;26.46;42.61;100873.63;5034829;28;45495;-74
2023/08/08 10:46:04;;;;;;;;;3.75;3.75;;;;;26.76;42.60;100880.38;5034855;28;45374;-72
2023/08/08 10:48:30;;;;;;;;;3.00;3.00;;;;;27.09;42.13;100885.09;5035627;28;45342;-68
2023/08/08 10:50:58;;;;;;;;;5.75;5.75;;;;;27.06;41.65;100871.94;5034767;28;45302;-74
2023/08/08 10:53:28;;;;;;;;;4.50;4.50;;;;;27.07;41.85;100881.72;5035118;28;45467;-77
2023/08/08 10:56:01;;;;;;;;;3.00;3.00;;;;;27.10;41.77;100873.28;5034497;28;46007;-73
2023/08/08 10:58:56;;;;;;;;;1.75;1.75;;;;;27.22;41.26;100863.88;5017094;28;45444;-75
2023/08/08 11:01:25;;;;;;;;;3.00;3.00;;;;;27.17;41.40;100873.50;5017351;28;45328;-74
2023/08/08 11:03:50;;;;;;;;;2.25;2.25;;;;;27.13;40.97;100872.97;5035029;28;45236;-73
2023/08/08 11:06:16;;;;;;;;;3.75;3.75;;;;;27.15;41.05;100872.81;5034836;28;45403;-71
2023/08/08 11:08:42;;;;;;;;;1.75;1.75;;;;;26.98;40.97;100870.03;5034413;28;47889;-70
2023/08/08 11:11:07;;;;;;;;;3.50;3.50;;;;;27.10;41.51;100871.44;5034733;28;45332;-72
2023/08/08 11:13:33;;;;;;;;;4.50;4.50;;;;;27.25;41.13;100868.94;5017363;28;45657;-70
2023/08/08 11:16:01;;;;;;;;;5.75;5.75;;;;;27.22;41.70;100871.97;5035179;28;46236;-73
2023/08/08 11:18:27;;;;;;;;;4.00;4.00;;;;;27.17;41.15;100871.63;5035565;28;45479;-73
2023/08/08 11:20:53;;;;;;;;;2.25;2.25;;;;;27.31;41.77;100866.59;5046538;28;45513;-76